Terminal Aerodrome Forecast
Issued by NWS

Home | Current Version | Previous Version | Graphics & Text | Print | Product List | Glossary On
Versions: 1 2 3 4 5 6 7 8 9 10 11 12 13 14 15 16 17 18
000
FTUS43 KMPX 172300
TAFRNH
TAF
KRNH 172339Z 1800/1824 12008KT P6SM -SHRA VCTS OVC017CB
     FM180100 11006KT 4SM BR OVC015
     FM181500 21005KT 5SM -SHRA BR OVC012
      TEMPO 1817/1820 2SM +TSRA BKN012CB OVC020
     FM182000 22007KT P6SM -SHRA BKN015 OVC050=

USA.gov is the U.S. government's official web portal to all federal, state and local government web resources and services.